createdAt,value
2024-02-14T00:02:24.668Z,18.1
2024-02-14T00:08:03.891Z,17.9
2024-02-14T00:13:11.923Z,18.1
2024-02-14T00:18:35.822Z,19
2024-02-14T00:23:59.577Z,19.6
2024-02-14T00:29:38.834Z,19.4
2024-02-14T00:35:05.181Z,19.1
2024-02-14T00:45:52.310Z,18.4
2024-02-14T00:51:33.748Z,18.3
2024-02-14T00:57:12.352Z,18.1
2024-02-14T01:02:51.784Z,17.9
2024-02-14T01:08:31.496Z,17.8
2024-02-14T01:14:10.729Z,17.6
2024-02-14T01:19:35.631Z,18.2
2024-02-14T08:12:46.622Z,17.5
2024-02-14T08:18:14.225Z,17.2
2024-02-14T08:23:43.053Z,17.1
2024-02-14T08:29:22.567Z,16.9
2024-02-14T08:35:03.230Z,16.8
2024-02-14T08:40:49.164Z,16.9
2024-02-14T08:46:29.413Z,17.8
2024-02-14T08:52:14.111Z,18.4
2024-02-14T08:57:57.689Z,18.2
2024-02-14T09:03:52.801Z,17.9
2024-02-14T09:09:32.877Z,17.6
2024-02-14T09:15:11.999Z,17.3
2024-02-14T09:20:53.439Z,17.1
2024-02-14T09:26:32.768Z,16.9
2024-02-14T09:37:52.331Z,17.9
2024-02-14T09:43:31.855Z,18.6
2024-02-14T09:49:15.961Z,18.3
2024-02-14T09:54:55.906Z,17.9
2024-02-14T10:00:36.205Z,17.5
2024-02-14T10:06:16.080Z,17.3
2024-02-14T10:17:34.613Z,16.9
2024-02-14T10:23:15.263Z,16.8
2024-02-14T10:29:00.527Z,17.8
2024-02-14T10:34:54.186Z,18.4
2024-02-14T10:40:33.575Z,18.3
2024-02-14T10:46:15.967Z,17.9
2024-02-14T10:51:56.520Z,17.5
2024-02-14T10:57:35.260Z,17.2
2024-02-14T11:08:40.174Z,16.9
2024-02-14T11:14:20.761Z,16.7
2024-02-14T11:20:01.771Z,17.3
2024-02-14T11:25:42.526Z,18.2
2024-02-14T11:31:36.254Z,18.4
2024-02-14T11:37:17.635Z,18.1
2024-02-14T11:42:59.630Z,17.8
2024-02-14T11:48:41.015Z,17.4
2024-02-14T11:54:21.333Z,17.1
2024-02-14T12:00:00.507Z,17.6
2024-02-14T12:05:41.139Z,18.4
2024-02-14T12:11:21.756Z,18.3
2024-02-14T12:17:01.838Z,18
2024-02-14T12:22:41.478Z,17.6
2024-02-14T12:28:21.011Z,17.3
2024-02-14T12:34:05.949Z,17.1
2024-02-14T12:39:47.715Z,17.3
2024-02-14T12:45:26.993Z,18.2
2024-02-14T12:51:07.049Z,18.4
2024-02-14T12:56:45.246Z,18.1
2024-02-14T13:02:25.164Z,17.8
2024-02-14T13:08:05.125Z,17.5
2024-02-14T13:13:44.434Z,17.3
2024-02-14T13:19:25.446Z,17.1
2024-02-14T13:25:05.040Z,17.6
2024-02-14T13:30:27.692Z,18.5
2024-02-14T13:36:08.932Z,18.4
2024-02-14T13:41:47.238Z,18.1
2024-02-14T13:47:28.522Z,17.7
2024-02-14T13:53:11.113Z,17.4
2024-02-14T13:58:51.107Z,17.2
2024-02-14T14:04:28.722Z,17.3
2024-02-14T14:10:25.213Z,18.3
2024-02-14T14:16:06.393Z,18.6
2024-02-14T14:21:47.891Z,18.3
2024-02-14T14:27:29.541Z,17.9
2024-02-14T14:33:14.521Z,17.5
2024-02-14T14:38:55.505Z,17.2
2024-02-14T14:50:05.295Z,16.8
2024-02-14T14:55:47.976Z,16.6
2024-02-14T15:01:30.340Z,16.4
2024-02-14T15:06:54.963Z,16.2
2024-02-14T15:12:35.925Z,16.1
2024-02-14T15:18:17.318Z,15.8
2024-02-14T15:24:00.585Z,15.6
2024-02-14T15:29:39.667Z,24.1
2024-02-14T15:35:20.187Z,31.3
2024-02-14T15:40:59.540Z,35.6
2024-02-14T15:46:22.195Z,38.7
2024-02-14T15:51:47.445Z,42.4
2024-02-14T15:57:26.566Z,44.9
2024-02-14T16:03:05.657Z,45.4
2024-02-14T16:08:45.497Z,44.3
2024-02-14T16:14:24.070Z,42.7
2024-02-14T16:20:04.693Z,40.8
2024-02-14T16:25:59.800Z,38.8
2024-02-14T16:31:38.391Z,38.1
2024-02-14T16:37:18.843Z,37.4
2024-02-14T16:43:12.805Z,38.9
2024-02-14T16:48:55.223Z,36.3
2024-02-14T16:54:38.002Z,41.8
2024-02-14T17:00:20.541Z,41
2024-02-14T17:05:57.896Z,40.3
2024-02-14T17:11:38.892Z,41.9
2024-02-14T17:17:06.416Z,40.2
2024-02-14T17:22:56.046Z,38.3
2024-02-14T17:28:34.646Z,38.9
2024-02-14T17:34:27.393Z,42.6
2024-02-14T17:40:07.032Z,41.5
2024-02-14T17:45:29.953Z,39.1
2024-02-14T17:51:09.848Z,38.3
2024-02-14T17:56:48.939Z,39.4
2024-02-14T18:02:27.838Z,39.4
2024-02-14T18:07:54.739Z,38.3
2024-02-14T18:13:35.877Z,36.7
2024-02-14T18:18:59.257Z,42.8
2024-02-14T18:24:40.021Z,40.5
2024-02-14T18:30:18.656Z,41.2
2024-02-14T18:35:45.564Z,44.4
2024-02-14T18:41:24.923Z,39.8
2024-02-14T18:47:03.044Z,43.6
2024-02-14T18:52:42.699Z,38.9
2024-02-14T18:58:21.498Z,39.8
2024-02-14T19:04:02.401Z,44.9
2024-02-14T19:09:41.594Z,43
2024-02-14T19:15:20.272Z,40.1
2024-02-14T19:21:13.602Z,42.1
2024-02-14T19:26:52.416Z,43.9
2024-02-14T19:32:31.568Z,41.9
